createdAt,value
2017-10-25T00:01:38.707Z,3.80
2017-10-25T00:04:06.279Z,3.30
2017-10-25T00:06:33.837Z,3.80
2017-10-25T00:09:01.421Z,3.70
2017-10-25T00:11:28.972Z,3.47
2017-10-25T00:13:57.295Z,3.77
2017-10-25T00:16:25.037Z,3.93
2017-10-25T00:18:53.362Z,4.27
2017-10-25T00:21:20.986Z,4.60
2017-10-25T00:23:49.330Z,4.30
2017-10-25T00:26:17.734Z,4.30
2017-10-25T00:28:45.294Z,4.50
2017-10-25T00:31:12.951Z,4.27
2017-10-25T00:33:41.286Z,4.30
2017-10-25T00:36:08.879Z,3.50
2017-10-25T00:38:37.274Z,3.80
2017-10-25T00:41:04.842Z,3.30
2017-10-25T00:43:32.423Z,3.53
2017-10-25T00:46:00.792Z,3.70
2017-10-25T00:48:29.141Z,4.40
2017-10-25T00:50:56.709Z,4.00
2017-10-25T00:53:25.040Z,3.80
2017-10-25T00:55:52.594Z,4.00
2017-10-25T00:58:20.173Z,3.13
2017-10-25T01:00:47.739Z,3.63
2017-10-25T01:03:15.292Z,3.37
2017-10-25T01:05:42.881Z,3.10
2017-10-25T01:08:10.509Z,2.70
2017-10-25T01:10:38.856Z,3.27
2017-10-25T01:13:06.534Z,2.93
2017-10-25T01:15:34.912Z,2.60
2017-10-25T01:18:02.531Z,2.87
2017-10-25T01:20:30.119Z,2.77
2017-10-25T01:22:57.690Z,2.80
2017-10-25T01:25:25.270Z,3.10
2017-10-25T01:27:52.871Z,2.53
2017-10-25T01:30:20.919Z,2.90
2017-10-25T01:32:48.470Z,2.80
2017-10-25T01:35:16.791Z,2.60
2017-10-25T01:37:44.382Z,2.80
2017-10-25T01:40:12.720Z,2.87
2017-10-25T01:42:40.304Z,3.07
2017-10-25T01:45:07.930Z,3.23
2017-10-25T01:47:35.499Z,2.60
2017-10-25T01:50:03.062Z,2.77
2017-10-25T01:52:30.638Z,2.80
2017-10-25T01:54:58.247Z,3.17
2017-10-25T01:57:25.790Z,2.33
2017-10-25T01:59:54.115Z,2.53
2017-10-25T02:02:21.899Z,2.60
2017-10-25T02:04:49.466Z,2.60
2017-10-25T02:07:17.069Z,2.70
2017-10-25T02:09:44.654Z,3.30
2017-10-25T02:12:13.368Z,2.43
2017-10-25T02:14:40.978Z,2.40
2017-10-25T02:17:08.541Z,2.60
2017-10-25T02:19:36.121Z,2.97
2017-10-25T02:22:04.460Z,2.93
2017-10-25T02:24:31.997Z,2.50
2017-10-25T02:26:59.572Z,2.37
2017-10-25T02:29:27.150Z,2.87
2017-10-25T02:31:55.293Z,2.57
2017-10-25T02:34:22.887Z,2.57
2017-10-25T02:36:50.503Z,3.33
2017-10-25T02:39:19.465Z,2.60
2017-10-25T02:41:47.103Z,2.50
2017-10-25T02:44:14.654Z,2.63
2017-10-25T02:46:42.227Z,2.50
2017-10-25T02:49:09.824Z,2.60
2017-10-25T02:51:37.375Z,2.50
2017-10-25T02:54:04.966Z,2.90
2017-10-25T02:56:32.551Z,2.90
2017-10-25T02:59:01.388Z,2.77
2017-10-25T03:01:29.701Z,1.97
2017-10-25T03:03:57.519Z,2.37
2017-10-25T03:06:25.079Z,2.40
2017-10-25T03:08:52.645Z,2.57
2017-10-25T03:11:21.022Z,2.20
2017-10-25T03:13:48.607Z,2.70
2017-10-25T03:16:16.190Z,2.80
2017-10-25T03:18:44.562Z,2.30
2017-10-25T03:21:13.063Z,3.03
2017-10-25T03:23:40.666Z,2.57
2017-10-25T03:26:08.428Z,2.30
2017-10-25T03:28:36.023Z,2.50
2017-10-25T03:31:03.633Z,2.43
2017-10-25T03:33:31.198Z,2.83
2017-10-25T03:35:58.933Z,2.30
2017-10-25T03:38:27.373Z,2.70
2017-10-25T03:40:54.942Z,2.07
2017-10-25T03:43:23.525Z,2.60
2017-10-25T03:45:51.086Z,3.40
2017-10-25T03:48:18.737Z,2.07
2017-10-25T03:50:46.297Z,2.47
2017-10-25T03:53:13.882Z,2.20
2017-10-25T03:55:41.455Z,2.53
2017-10-25T03:58:09.030Z,2.50
2017-10-25T04:00:37.394Z,2.77
2017-10-25T04:03:05.726Z,2.63
2017-10-25T04:05:33.310Z,2.90
2017-10-25T04:08:00.869Z,2.60
2017-10-25T04:10:28.493Z,1.97
2017-10-25T04:12:56.137Z,2.40
2017-10-25T04:15:24.531Z,2.70
2017-10-25T04:17:52.866Z,2.73
2017-10-25T04:20:20.413Z,2.73
2017-10-25T04:22:48.011Z,3.07
2017-10-25T04:25:15.622Z,2.60
2017-10-25T04:27:43.967Z,2.80
2017-10-25T04:30:12.532Z,2.70
2017-10-25T04:32:40.238Z,2.37
2017-10-25T04:35:07.913Z,3.03
2017-10-25T04:37:35.499Z,2.77
2017-10-25T04:40:03.089Z,3.00
2017-10-25T04:42:30.702Z,3.17
2017-10-25T04:44:58.271Z,2.70
2017-10-25T04:47:25.854Z,2.90
2017-10-25T04:49:53.453Z,2.87
2017-10-25T04:52:21.770Z,2.30
2017-10-25T04:54:49.475Z,2.83
2017-10-25T04:57:17.683Z,2.47
2017-10-25T04:59:46.010Z,2.93
2017-10-25T05:02:13.587Z,2.90
2017-10-25T05:04:41.967Z,2.83
2017-10-25T05:07:09.551Z,3.03
2017-10-25T05:09:37.645Z,3.20
2017-10-25T05:12:05.998Z,3.33
2017-10-25T05:14:33.553Z,3.00
2017-10-25T05:17:01.124Z,2.97
2017-10-25T05:19:28.733Z,2.90
2017-10-25T05:21:56.326Z,3.30
2017-10-25T05:24:23.894Z,2.50
2017-10-25T05:26:51.469Z,3.37
2017-10-25T05:29:19.787Z,3.20
2017-10-25T05:31:47.343Z,3.20
2017-10-25T05:34:14.923Z,3.03
2017-10-25T05:36:42.548Z,3.50
2017-10-25T05:39:10.882Z,3.77
2017-10-25T05:41:38.474Z,2.60
2017-10-25T05:44:06.043Z,2.70
2017-10-25T05:46:33.648Z,3.47
2017-10-25T05:49:01.226Z,3.60
2017-10-25T05:51:28.795Z,3.13
2017-10-25T05:53:56.385Z,3.10
2017-10-25T05:56:24.004Z,3.00
2017-10-25T05:58:51.574Z,3.60
2017-10-25T06:01:19.143Z,3.83
2017-10-25T06:03:46.720Z,4.07
2017-10-25T06:06:14.291Z,2.93
2017-10-25T06:08:42.628Z,3.67
2017-10-25T06:11:10.230Z,4.23
2017-10-25T06:13:40.553Z,3.97
2017-10-25T06:16:08.946Z,3.10
2017-10-25T06:18:36.517Z,4.17
2017-10-25T06:21:04.110Z,3.20
2017-10-25T06:23:31.874Z,3.63
2017-10-25T06:25:59.459Z,3.50
2017-10-25T06:28:27.071Z,3.60
2017-10-25T06:30:55.414Z,3.07
2017-10-25T06:33:23.015Z,2.80
2017-10-25T06:35:51.359Z,3.20
2017-10-25T06:38:18.911Z,3.90
2017-10-25T06:40:46.573Z,4.27
2017-10-25T06:43:14.187Z,4.20
2017-10-25T06:45:42.534Z,3.70
2017-10-25T06:48:10.096Z,3.90
2017-10-25T06:50:37.694Z,4.00
2017-10-25T06:53:05.296Z,4.43
2017-10-25T06:55:32.863Z,3.67
2017-10-25T06:58:00.425Z,3.60
2017-10-25T07:00:28.143Z,4.20
2017-10-25T07:02:56.500Z,4.80
2017-10-25T07:05:24.066Z,4.43
2017-10-25T07:07:51.705Z,4.47
2017-10-25T07:10:19.598Z,4.10
2017-10-25T07:12:47.936Z,4.87
2017-10-25T07:15:15.612Z,4.43
2017-10-25T07:17:43.198Z,4.50
2017-10-25T07:20:11.248Z,4.10
2017-10-25T07:22:38.815Z,4.17
2017-10-25T07:25:07.358Z,4.60
2017-10-25T07:27:34.934Z,4.20
2017-10-25T07:30:02.524Z,4.10
2017-10-25T07:32:30.086Z,4.10
2017-10-25T07:34:57.662Z,4.70
2017-10-25T07:37:25.270Z,4.20
2017-10-25T07:39:53.020Z,4.87
2017-10-25T07:42:21.369Z,4.50
2017-10-25T07:44:48.972Z,5.50
2017-10-25T07:47:16.581Z,4.50
2017-10-25T07:49:44.494Z,4.63
2017-10-25T07:52:13.085Z,3.70
2017-10-25T07:54:41.615Z,4.23
2017-10-25T07:57:09.182Z,4.43
2017-10-25T07:59:36.781Z,3.60
2017-10-25T08:02:04.463Z,3.53
2017-10-25T08:04:32.118Z,3.63
2017-10-25T08:06:59.714Z,3.40
2017-10-25T08:09:27.290Z,3.50
2017-10-25T08:11:54.895Z,3.00
2017-10-25T08:14:22.526Z,2.70
2017-10-25T08:16:50.114Z,3.10
2017-10-25T08:19:17.782Z,3.63
2017-10-25T08:21:46.217Z,3.27
2017-10-25T08:24:13.821Z,4.03
2017-10-25T08:26:42.282Z,3.23
2017-10-25T08:29:09.934Z,3.37
2017-10-25T08:31:37.475Z,3.60
2017-10-25T08:34:05.027Z,3.00
2017-10-25T08:36:32.658Z,3.00
2017-10-25T08:39:00.338Z,3.13
2017-10-25T08:41:28.207Z,3.00
2017-10-25T08:43:55.902Z,2.80
2017-10-25T08:46:23.570Z,3.80
2017-10-25T08:48:51.180Z,2.93
2017-10-25T08:51:19.255Z,2.50
2017-10-25T08:53:47.046Z,2.97
2017-10-25T08:56:15.352Z,2.57
2017-10-25T08:58:42.968Z,3.10
2017-10-25T09:01:11.396Z,2.90
2017-10-25T09:03:39.161Z,2.30
2017-10-25T09:06:06.713Z,2.43
2017-10-25T09:08:34.323Z,2.53
2017-10-25T09:11:02.012Z,2.87
2017-10-25T09:13:30.353Z,3.03
2017-10-25T09:15:57.944Z,3.30
2017-10-25T09:18:25.487Z,2.70
2017-10-25T09:20:53.088Z,4.17
2017-10-25T09:23:21.440Z,3.20
2017-10-25T09:25:49.139Z,3.67
2017-10-25T09:28:16.692Z,2.90
2017-10-25T09:30:45.041Z,2.97
2017-10-25T09:33:12.591Z,2.67
2017-10-25T09:35:40.190Z,2.90
2017-10-25T09:38:08.690Z,2.50
2017-10-25T09:40:36.261Z,2.43
2017-10-25T09:43:03.842Z,2.73
2017-10-25T09:45:31.395Z,2.70
2017-10-25T09:47:58.967Z,2.90
2017-10-25T09:50:26.543Z,2.93
2017-10-25T09:52:54.157Z,2.60
2017-10-25T09:55:21.728Z,3.00
2017-10-25T09:57:49.322Z,2.93
2017-10-25T10:00:17.089Z,2.83
2017-10-25T10:02:44.672Z,3.07
2017-10-25T10:05:12.266Z,2.53
2017-10-25T10:07:40.613Z,3.10
2017-10-25T10:10:08.233Z,2.30
2017-10-25T10:12:35.776Z,2.70
2017-10-25T10:15:04.132Z,2.93
2017-10-25T10:17:32.975Z,2.60
2017-10-25T10:20:00.577Z,2.70
2017-10-25T10:22:28.174Z,3.00
2017-10-25T10:24:56.536Z,3.40
2017-10-25T10:27:24.184Z,2.90
2017-10-25T10:29:52.535Z,2.90
2017-10-25T10:32:20.273Z,2.67
2017-10-25T10:34:48.624Z,3.00
2017-10-25T10:37:16.212Z,3.00
2017-10-25T10:39:44.565Z,3.27
2017-10-25T10:42:12.270Z,2.77
2017-10-25T10:44:39.892Z,2.80
2017-10-25T10:47:07.753Z,3.00
2017-10-25T10:49:35.489Z,4.00
2017-10-25T10:52:03.085Z,3.00
2017-10-25T10:54:30.728Z,3.00
2017-10-25T10:56:58.356Z,3.30
2017-10-25T10:59:25.913Z,2.40
2017-10-25T11:01:53.514Z,2.57
2017-10-25T11:04:21.151Z,3.00
2017-10-25T11:06:48.776Z,3.50
2017-10-25T11:09:16.682Z,3.13
2017-10-25T11:11:44.287Z,3.57
2017-10-25T11:14:12.043Z,3.17
2017-10-25T11:16:39.654Z,3.20
2017-10-25T11:19:08.146Z,3.13
2017-10-25T11:21:35.726Z,3.47
2017-10-25T11:24:03.505Z,3.30
2017-10-25T11:26:31.268Z,3.03
2017-10-25T11:28:58.866Z,3.47
2017-10-25T11:31:26.582Z,3.50
2017-10-25T11:33:54.137Z,2.97
2017-10-25T11:36:21.715Z,3.43
2017-10-25T11:38:49.326Z,3.70
2017-10-25T11:41:17.659Z,3.53
2017-10-25T11:43:45.299Z,3.70
2017-10-25T11:46:13.060Z,4.03
2017-10-25T11:48:41.438Z,3.00
2017-10-25T11:51:09.810Z,3.40
2017-10-25T11:53:37.678Z,3.17
2017-10-25T11:56:05.295Z,3.90
2017-10-25T11:58:32.904Z,3.40
2017-10-25T12:01:01.319Z,2.97
2017-10-25T12:03:28.930Z,4.47
2017-10-25T12:05:56.510Z,3.27
2017-10-25T12:08:24.951Z,3.70
2017-10-25T12:10:52.532Z,3.80
2017-10-25T12:13:20.103Z,4.00
2017-10-25T12:15:47.696Z,3.70
2017-10-25T12:18:16.072Z,3.77
2017-10-25T12:20:44.540Z,3.60
2017-10-25T12:23:12.138Z,3.30
2017-10-25T12:25:39.778Z,3.73
2017-10-25T12:28:08.126Z,4.17
2017-10-25T12:30:35.705Z,3.13
2017-10-25T12:33:04.080Z,3.47
2017-10-25T12:35:33.122Z,3.57
2017-10-25T12:38:00.687Z,3.47
2017-10-25T12:40:28.288Z,3.50
2017-10-25T12:42:55.877Z,3.43
2017-10-25T12:45:24.229Z,3.70
2017-10-25T12:47:51.989Z,3.27
2017-10-25T12:50:19.581Z,2.93
2017-10-25T12:52:47.907Z,4.03
2017-10-25T12:55:15.474Z,4.83
2017-10-25T12:57:43.059Z,3.90
2017-10-25T13:00:10.641Z,4.40
2017-10-25T13:02:39.624Z,3.77
2017-10-25T13:05:07.218Z,4.13
2017-10-25T13:07:34.805Z,4.47
2017-10-25T13:10:03.402Z,3.63
2017-10-25T13:12:51.218Z,3.93
2017-10-25T13:15:26.129Z,4.07
2017-10-25T13:17:58.333Z,3.53
2017-10-25T13:20:26.811Z,4.47
2017-10-25T13:22:55.175Z,3.90
2017-10-25T13:25:23.537Z,4.27
2017-10-25T13:27:51.886Z,4.30
2017-10-25T13:30:20.416Z,4.80
2017-10-25T13:32:48.742Z,4.27
2017-10-25T13:35:16.486Z,4.40
2017-10-25T13:37:44.106Z,4.30
2017-10-25T13:40:11.727Z,4.33
2017-10-25T13:42:39.405Z,3.70
2017-10-25T13:45:07.183Z,4.40
2017-10-25T13:47:34.781Z,4.73
2017-10-25T13:50:03.151Z,4.60
2017-10-25T13:52:31.576Z,4.50
2017-10-25T13:54:59.162Z,3.93
2017-10-25T13:57:26.742Z,4.60
2017-10-25T13:59:55.205Z,4.40
2017-10-25T14:02:23.671Z,4.37
2017-10-25T14:04:51.251Z,5.27
2017-10-25T14:07:18.856Z,4.60
2017-10-25T14:09:47.311Z,4.53
2017-10-25T14:12:14.910Z,5.20
2017-10-25T14:14:43.313Z,3.73
2017-10-25T14:17:10.918Z,4.43
2017-10-25T14:19:38.538Z,4.20
2017-10-25T14:22:06.135Z,4.37
2017-10-25T14:24:33.781Z,4.10
2017-10-25T14:30:17.175Z,4.13
2017-10-25T14:32:44.741Z,4.37
2017-10-25T14:35:12.345Z,3.73
2017-10-25T14:37:39.966Z,4.57
2017-10-25T14:40:07.685Z,4.20
2017-10-25T14:42:36.418Z,4.67
2017-10-25T14:45:04.018Z,4.23
2017-10-25T14:47:31.642Z,5.00
2017-10-25T14:49:59.257Z,4.30
2017-10-25T14:52:26.850Z,4.07
2017-10-25T14:54:55.198Z,4.50
2017-10-25T14:57:22.783Z,4.33
2017-10-25T14:59:51.155Z,5.23
2017-10-25T15:02:18.745Z,5.37
2017-10-25T15:04:46.379Z,4.90
2017-10-25T15:07:14.774Z,5.13
2017-10-25T15:09:43.139Z,4.93
2017-10-25T15:12:10.714Z,4.47
2017-10-25T15:14:39.094Z,4.70
2017-10-25T15:17:07.610Z,5.13
2017-10-25T15:19:35.195Z,4.60
2017-10-25T15:22:02.766Z,4.83
2017-10-25T15:24:30.358Z,4.43
2017-10-25T15:26:57.962Z,5.03
2017-10-25T15:29:25.595Z,4.87
2017-10-25T15:31:54.072Z,5.53
2017-10-25T15:34:22.471Z,5.50
2017-10-25T15:36:50.130Z,5.93
2017-10-25T15:39:17.750Z,6.07
2017-10-25T15:41:45.378Z,5.30
2017-10-25T15:44:12.961Z,5.40
2017-10-25T15:46:40.599Z,6.60
2017-10-25T15:49:08.219Z,7.40
2017-10-25T15:51:35.818Z,6.37
2017-10-25T15:54:03.418Z,6.40
2017-10-25T15:56:31.015Z,5.97
2017-10-25T15:58:58.578Z,6.37
2017-10-25T16:01:27.650Z,6.07
2017-10-25T16:03:55.259Z,5.80
2017-10-25T16:06:22.896Z,6.43
2017-10-25T16:08:51.243Z,6.80
2017-10-25T16:11:18.824Z,6.90
2017-10-25T16:13:46.418Z,7.77
2017-10-25T16:16:14.757Z,7.10
2017-10-25T16:18:42.335Z,7.43
2017-10-25T16:21:10.029Z,8.20
2017-10-25T16:23:37.629Z,8.07
2017-10-25T16:26:05.241Z,9.53
2017-10-25T16:28:33.592Z,9.50
2017-10-25T16:31:01.341Z,9.67
2017-10-25T16:33:28.951Z,9.63
2017-10-25T16:35:57.303Z,10.10
2017-10-25T16:38:25.850Z,9.23
2017-10-25T16:40:53.526Z,9.60
2017-10-25T16:43:21.362Z,10.27
2017-10-25T16:45:49.104Z,11.27
2017-10-25T16:48:16.915Z,11.43
2017-10-25T16:50:44.874Z,9.83
2017-10-25T16:53:12.699Z,10.67
2017-10-25T16:55:40.369Z,10.27
2017-10-25T16:58:08.914Z,10.00
2017-10-25T17:00:36.819Z,9.73
2017-10-25T17:03:05.243Z,10.30
2017-10-25T17:05:32.919Z,10.53
2017-10-25T17:08:10.501Z,9.40
2017-10-25T17:10:38.247Z,10.07
2017-10-25T17:13:05.977Z,9.73
2017-10-25T17:15:33.714Z,9.73
2017-10-25T17:18:01.386Z,10.80
2017-10-25T17:20:30.182Z,9.70
2017-10-25T17:22:57.874Z,10.73
2017-10-25T17:25:25.581Z,12.03
2017-10-25T17:27:53.861Z,11.00
2017-10-25T17:30:21.599Z,11.73
2017-10-25T17:32:49.998Z,10.80
2017-10-25T17:35:17.748Z,10.70
2017-10-25T17:37:46.625Z,12.90
2017-10-25T17:40:14.252Z,11.60
2017-10-25T17:42:41.930Z,11.80
2017-10-25T17:45:09.539Z,11.90
2017-10-25T17:47:37.952Z,12.37
2017-10-25T17:50:05.653Z,11.27
2017-10-25T17:52:35.103Z,12.97
2017-10-25T17:55:02.729Z,12.47
2017-10-25T17:57:30.363Z,13.87
2017-10-25T17:59:58.002Z,13.50
2017-10-25T18:02:25.788Z,13.17
2017-10-25T18:04:53.864Z,13.60
2017-10-25T18:07:21.511Z,14.30
2017-10-25T18:09:49.406Z,16.63
2017-10-25T18:12:17.041Z,16.50
2017-10-25T18:14:44.685Z,15.50
2017-10-25T18:17:12.288Z,14.30
2017-10-25T18:19:39.887Z,14.50
2017-10-25T18:22:07.595Z,16.37
2017-10-25T18:24:35.202Z,14.43
2017-10-25T18:27:02.831Z,15.37
2017-10-25T18:29:30.471Z,15.97
2017-10-25T18:31:59.064Z,18.73
2017-10-25T18:34:27.505Z,15.30
2017-10-25T18:36:55.856Z,15.47
2017-10-25T18:39:23.487Z,16.00
2017-10-25T18:41:51.316Z,15.47
2017-10-25T18:44:18.960Z,18.83
2017-10-25T18:46:46.731Z,16.03
2017-10-25T18:49:24.523Z,16.70
2017-10-25T18:51:52.143Z,16.70
2017-10-25T18:54:20.668Z,20.20
2017-10-25T18:56:48.265Z,17.87
2017-10-25T18:59:15.888Z,17.43
2017-10-25T19:01:43.521Z,16.00
2017-10-25T19:04:12.236Z,16.80
2017-10-25T19:06:39.978Z,17.20
2017-10-25T19:09:21.247Z,19.40
2017-10-25T19:11:48.917Z,16.43
2017-10-25T19:14:17.285Z,16.80
2017-10-25T19:16:45.001Z,16.07
2017-10-25T19:19:12.569Z,17.97
2017-10-25T19:21:40.139Z,17.53
2017-10-25T19:24:07.846Z,16.67
2017-10-25T19:26:35.436Z,20.60
2017-10-25T19:29:03.071Z,17.37
2017-10-25T19:31:30.715Z,17.13
2017-10-25T19:33:58.458Z,16.33
2017-10-25T19:36:26.907Z,15.90
2017-10-25T19:38:55.065Z,16.80
2017-10-25T19:41:23.453Z,17.27
2017-10-25T19:43:51.824Z,17.60
2017-10-25T19:46:20.380Z,16.43
2017-10-25T19:48:48.331Z,18.13
2017-10-25T19:51:16.036Z,15.50
2017-10-25T19:53:43.746Z,16.53
2017-10-25T19:56:11.452Z,16.47
2017-10-25T19:58:40.413Z,16.57
2017-10-25T20:01:08.090Z,15.77
2017-10-25T20:03:36.517Z,16.70
2017-10-25T20:06:04.162Z,17.20
2017-10-25T20:08:31.808Z,16.17
2017-10-25T20:10:59.620Z,16.07
2017-10-25T20:13:27.193Z,15.07
2017-10-25T20:15:54.811Z,16.90
2017-10-25T20:18:23.295Z,15.87
2017-10-25T20:20:51.716Z,18.30
2017-10-25T20:23:19.386Z,17.80
2017-10-25T20:25:47.014Z,19.80
2017-10-25T20:28:15.406Z,17.33
2017-10-25T20:30:43.397Z,20.87
2017-10-25T20:33:11.126Z,20.37
2017-10-25T20:35:39.532Z,18.07
2017-10-25T20:38:07.827Z,19.13
2017-10-25T20:40:36.651Z,17.93
2017-10-25T20:43:04.282Z,21.60
2017-10-25T20:45:31.919Z,22.30
2017-10-25T20:48:00.460Z,22.43
2017-10-25T20:50:28.133Z,20.30
2017-10-25T20:52:55.742Z,19.70
2017-10-25T20:55:24.137Z,22.27
2017-10-25T20:57:52.773Z,19.47
2017-10-25T21:00:20.572Z,23.23
2017-10-25T21:02:48.197Z,22.33
2017-10-25T21:05:15.883Z,18.97
2017-10-25T21:07:43.508Z,20.10
2017-10-25T21:10:11.089Z,21.80
2017-10-25T21:12:38.696Z,17.87
2017-10-25T21:15:07.289Z,19.10
2017-10-25T21:17:34.993Z,19.37
2017-10-25T21:20:02.580Z,19.90
2017-10-25T21:22:30.191Z,17.87
2017-10-25T21:24:57.738Z,20.53
2017-10-25T21:27:26.122Z,22.33
2017-10-25T21:29:54.539Z,21.10
2017-10-25T21:32:22.206Z,21.90
2017-10-25T21:34:49.810Z,19.50
2017-10-25T21:37:18.153Z,16.77
2017-10-25T21:39:45.755Z,19.70
2017-10-25T21:42:14.307Z,19.60
2017-10-25T21:44:41.909Z,22.60
2017-10-25T21:47:10.316Z,22.20
2017-10-25T21:49:37.893Z,21.30
2017-10-25T21:52:05.524Z,21.07
2017-10-25T21:54:33.111Z,22.17
2017-10-25T21:57:00.811Z,21.03
2017-10-25T21:59:28.392Z,20.67
2017-10-25T22:01:56.100Z,20.37
2017-10-25T22:04:23.685Z,22.57
2017-10-25T22:06:51.293Z,22.00
2017-10-25T22:09:19.694Z,23.63
2017-10-25T22:11:47.314Z,20.10
2017-10-25T22:14:15.684Z,21.70
2017-10-25T22:16:43.243Z,25.00
2017-10-25T22:19:11.615Z,23.50
2017-10-25T22:21:39.192Z,26.63
2017-10-25T22:24:06.800Z,21.87
2017-10-25T22:26:44.283Z,22.80
2017-10-25T22:29:12.646Z,22.77
2017-10-25T22:31:41.043Z,22.87
2017-10-25T22:34:08.865Z,23.20
2017-10-25T22:36:36.429Z,22.07
2017-10-25T22:39:04.028Z,23.60
2017-10-25T22:41:32.484Z,20.73
2017-10-25T22:44:00.303Z,21.43
2017-10-25T22:46:27.896Z,20.07
2017-10-25T22:48:55.500Z,19.17
2017-10-25T22:51:23.881Z,19.47
2017-10-25T22:53:52.212Z,22.80
2017-10-25T22:56:19.812Z,25.43
2017-10-25T22:58:48.177Z,24.47
2017-10-25T23:01:15.731Z,23.83
2017-10-25T23:03:43.463Z,20.37
2017-10-25T23:06:11.054Z,19.37
2017-10-25T23:08:39.411Z,19.67
2017-10-25T23:11:07.009Z,21.37
2017-10-25T23:13:34.575Z,20.10
2017-10-25T23:16:02.246Z,21.23
2017-10-25T23:18:30.620Z,19.60
2017-10-25T23:20:58.982Z,22.50
2017-10-25T23:23:26.580Z,19.30
2017-10-25T23:25:54.215Z,23.23
2017-10-25T23:28:21.825Z,23.63
2017-10-25T23:30:49.787Z,23.40
2017-10-25T23:33:17.358Z,25.20
2017-10-25T23:35:45.003Z,30.10
2017-10-25T23:38:13.346Z,27.83
2017-10-25T23:40:41.690Z,31.20
2017-10-25T23:43:09.311Z,31.77
2017-10-25T23:45:37.715Z,27.30
2017-10-25T23:48:05.287Z,30.70
2017-10-25T23:50:32.852Z,29.30
2017-10-25T23:53:00.451Z,27.13
2017-10-25T23:55:28.028Z,30.20
2017-10-25T23:57:55.708Z,28.37
